Denning, Texas
Current Conditions -  °F | °C
As of 11:55 AM on Friday 21 Nov 2014 (Local Time) from KOCH Reporting Station
Overcast Overcast  
Wind Chill: 59°   Ceiling: 1100
Heat Index: 59°   Visibility: 8mi
Dew Point: 57°   Wind: 6mph
Humidity: 94%   Direction: 130°SE
Pressure: 30.19"   Gusts: NA
Location:  31.516°N, 94.1687°W
Report Text: KOCH 211755Z AUTO 13005KT 8SM SCT004 BKN011 OVC016 15/14 A3019 RMK AO1 P0003 60056 10150 20130 57003
Loading
Personal Weather Stations






























Interactive Weather Map New forecast layout! Learn more

10-Day Weather Forecast

Advertisements
Track Severe Weather on mobile